createdAt,value
2023-04-09T00:00:01.850Z,91.56
2023-04-09T00:01:01.791Z,91.56
2023-04-09T00:02:01.857Z,91.46
2023-04-09T00:03:01.824Z,91.36
2023-04-09T00:04:01.932Z,91.46
2023-04-09T00:05:01.758Z,91.56
2023-04-09T00:06:01.795Z,91.56
2023-04-09T00:07:01.717Z,91.46
2023-04-09T00:08:01.747Z,91.36
2023-04-09T00:09:01.692Z,91.16
2023-04-09T00:10:01.734Z,90.95
2023-04-09T00:11:01.699Z,91.05
2023-04-09T00:12:01.700Z,91.20
2023-04-09T00:13:01.662Z,91.40
2023-04-09T00:14:01.679Z,91.50
2023-04-09T00:15:01.694Z,91.50
2023-04-09T00:16:01.871Z,91.40
2023-04-09T00:17:01.678Z,91.40
2023-04-09T00:18:01.664Z,91.26
2023-04-09T00:19:01.581Z,91.16
2023-04-09T00:20:01.629Z,90.95
2023-04-09T00:21:01.576Z,90.84
2023-04-09T00:22:01.587Z,90.64
2023-04-09T00:23:01.532Z,90.64
2023-04-09T00:24:01.566Z,90.64
2023-04-09T00:25:01.526Z,90.78
2023-04-09T00:26:01.624Z,91.09
2023-04-09T00:27:01.514Z,91.40
2023-04-09T00:28:01.509Z,91.61
2023-04-09T00:29:01.475Z,91.50
2023-04-09T00:30:01.524Z,91.65
2023-04-09T00:31:01.489Z,91.86
2023-04-09T00:32:01.585Z,91.96
2023-04-09T00:33:01.544Z,92.17
2023-04-09T00:34:01.469Z,92.27
2023-04-09T00:35:01.437Z,92.48
2023-04-09T00:36:01.485Z,92.48
2023-04-09T00:37:01.636Z,92.38
2023-04-09T00:38:02.344Z,92.27
2023-04-09T00:39:01.353Z,92.27
2023-04-09T00:40:01.456Z,92.17
2023-04-09T00:41:01.346Z,92.07
2023-04-09T00:42:01.385Z,91.96
2023-04-09T00:43:01.326Z,91.86
2023-04-09T00:44:01.313Z,91.71
2023-04-09T00:45:01.321Z,91.55
2023-04-09T00:46:01.354Z,91.55
2023-04-09T00:47:01.289Z,91.86
2023-04-09T00:48:01.335Z,92.21
2023-04-09T00:49:01.310Z,92.63
2023-04-09T00:50:01.280Z,92.93
2023-04-09T00:51:01.268Z,93.04
2023-04-09T00:52:01.262Z,92.93
2023-04-09T00:53:01.197Z,92.83
2023-04-09T00:54:01.307Z,92.83
2023-04-09T00:55:01.181Z,92.79
2023-04-09T00:56:01.191Z,92.79
2023-04-09T00:57:02.114Z,92.58
2023-04-09T00:58:01.172Z,92.38
2023-04-09T00:59:01.154Z,92.17
2023-04-09T01:00:01.180Z,91.86
2023-04-09T01:01:01.149Z,91.86
2023-04-09T01:02:01.209Z,91.96
2023-04-09T01:03:01.184Z,92.17
2023-04-09T01:04:01.102Z,92.27
2023-04-09T01:05:01.068Z,92.27
2023-04-09T01:06:01.087Z,92.17
2023-04-09T01:07:01.038Z,92.07
2023-04-09T01:08:01.055Z,91.96
2023-04-09T01:09:01.258Z,91.86
2023-04-09T01:10:01.046Z,91.65
2023-04-09T01:11:01.072Z,91.55
2023-04-09T01:12:01.009Z,91.44
2023-04-09T01:13:00.982Z,91.44
2023-04-09T01:14:01.021Z,91.44
2023-04-09T01:15:00.945Z,91.44
2023-04-09T01:16:00.957Z,91.80
2023-04-09T01:17:00.946Z,92.11
2023-04-09T01:18:01.012Z,92.32
2023-04-09T01:19:00.928Z,92.42
2023-04-09T01:20:00.917Z,92.42
2023-04-09T01:21:00.913Z,92.63
2023-04-09T01:22:00.924Z,92.83
2023-04-09T01:23:01.845Z,92.83
2023-04-09T01:24:00.883Z,92.83
2023-04-09T01:25:00.859Z,92.72
2023-04-09T01:26:00.842Z,92.72
2023-04-09T01:27:00.824Z,92.63
2023-04-09T01:28:00.824Z,92.42
2023-04-09T01:29:00.778Z,92.32
2023-04-09T01:30:00.859Z,92.21
2023-04-09T01:31:00.806Z,92.11
2023-04-09T01:32:00.800Z,92.11
2023-04-09T01:33:00.755Z,92.00
2023-04-09T01:34:00.757Z,91.90
2023-04-09T01:35:00.731Z,91.80
2023-04-09T01:36:00.783Z,91.59
2023-04-09T01:37:00.717Z,91.28
2023-04-09T01:38:00.762Z,91.17
2023-04-09T01:39:00.712Z,90.97
2023-04-09T01:40:00.709Z,90.77
2023-04-09T01:41:00.947Z,90.66
2023-04-09T01:42:00.699Z,90.35
2023-04-09T01:43:00.651Z,90.14
2023-04-09T01:44:00.655Z,90.14
2023-04-09T01:45:00.611Z,90.04
2023-04-09T01:46:00.685Z,89.83
2023-04-09T01:47:00.577Z,89.73
2023-04-09T01:48:00.679Z,89.73
2023-04-09T01:49:00.593Z,89.83
2023-04-09T01:50:00.591Z,89.83
2023-04-09T01:51:01.516Z,89.83
2023-04-09T01:52:00.580Z,89.73
2023-04-09T01:53:00.527Z,89.73
2023-04-09T01:54:00.551Z,89.52
2023-04-09T01:55:00.516Z,89.42
2023-04-09T01:56:00.505Z,89.42
2023-04-09T01:57:00.487Z,89.56
2023-04-09T01:58:00.525Z,89.56
2023-04-09T01:59:00.483Z,89.67
2023-04-09T02:00:00.491Z,89.87
2023-04-09T02:01:00.481Z,90.29
2023-04-09T02:02:00.524Z,90.50
2023-04-09T02:03:00.601Z,90.60
2023-04-09T02:04:00.492Z,90.70
2023-04-09T02:05:00.395Z,90.74
2023-04-09T02:06:00.420Z,90.53
2023-04-09T02:07:00.404Z,90.53
2023-04-09T02:08:00.397Z,90.64
2023-04-09T02:09:00.388Z,90.74
2023-04-09T02:10:00.383Z,90.84
2023-04-09T02:11:00.345Z,90.95
2023-04-09T02:12:00.391Z,90.91
2023-04-09T02:13:00.293Z,90.91
2023-04-09T02:14:00.316Z,90.60
2023-04-09T02:15:00.292Z,90.39
2023-04-09T02:16:01.152Z,90.39
2023-04-09T02:17:00.308Z,90.50
2023-04-09T02:18:00.329Z,90.60
2023-04-09T02:19:00.235Z,90.70
2023-04-09T02:20:00.319Z,90.70
2023-04-09T02:21:00.256Z,91.01
2023-04-09T02:22:00.251Z,91.47
2023-04-09T02:23:00.204Z,91.67
2023-04-09T02:24:00.208Z,91.99
2023-04-09T02:25:00.175Z,92.30
2023-04-09T02:26:00.198Z,92.81
2023-04-09T02:27:00.182Z,93.12
2023-04-09T02:28:00.161Z,93.23
2023-04-09T02:29:00.142Z,93.12
2023-04-09T02:30:00.225Z,93.02
2023-04-09T02:31:00.160Z,92.81
2023-04-09T02:32:00.190Z,92.61
2023-04-09T02:33:00.158Z,92.76
2023-04-09T02:34:00.121Z,92.96
2023-04-09T02:35:00.094Z,93.16
2023-04-09T02:36:00.180Z,93.12
2023-04-09T02:37:00.084Z,92.91
2023-04-09T02:38:00.060Z,92.81
2023-04-09T02:39:00.047Z,92.81
2023-04-09T02:40:00.045Z,92.91
2023-04-09T02:40:59.996Z,92.81
2023-04-09T02:42:00.078Z,92.71
2023-04-09T02:43:00.009Z,92.71
2023-04-09T02:44:00.009Z,92.50
2023-04-09T02:44:59.990Z,92.40
2023-04-09T02:45:59.979Z,92.19
2023-04-09T02:46:59.938Z,92.19
2023-04-09T02:47:59.990Z,92.19
2023-04-09T02:48:59.901Z,92.09
2023-04-09T02:50:04.768Z,91.88
2023-04-09T02:50:59.885Z,91.63
2023-04-09T02:51:59.903Z,91.32
2023-04-09T02:52:59.866Z,91.01
2023-04-09T02:53:59.927Z,90.91
2023-04-09T02:54:59.837Z,90.91
2023-04-09T02:55:59.856Z,90.91
2023-04-09T02:56:59.856Z,91.01
2023-04-09T02:57:59.857Z,91.11
2023-04-09T02:58:59.802Z,90.91
2023-04-09T02:59:59.824Z,90.74
2023-04-09T03:00:59.781Z,91.05
2023-04-09T03:02:00.823Z,91.36
2023-04-09T03:02:59.847Z,91.57
2023-04-09T03:03:59.840Z,91.57
2023-04-09T03:04:59.744Z,91.57
2023-04-09T03:05:59.842Z,91.36
2023-04-09T03:06:59.963Z,91.36
2023-04-09T03:07:59.740Z,91.36
2023-04-09T03:08:59.696Z,91.57
2023-04-09T03:09:59.701Z,91.67
2023-04-09T03:10:59.648Z,91.57
2023-04-09T03:11:59.645Z,91.67
2023-04-09T03:12:59.713Z,91.78
2023-04-09T03:13:59.626Z,91.78
2023-04-09T03:14:59.635Z,91.99
2023-04-09T03:15:59.654Z,92.09
2023-04-09T03:16:59.623Z,92.09
2023-04-09T03:17:59.686Z,92.19
2023-04-09T03:18:59.620Z,92.19
2023-04-09T03:19:59.579Z,92.30
2023-04-09T03:20:59.580Z,92.19
2023-04-09T03:21:59.568Z,92.09
2023-04-09T03:22:59.573Z,91.99
2023-04-09T03:23:59.569Z,91.88
2023-04-09T03:24:59.523Z,91.78
2023-04-09T03:25:59.515Z,91.88
2023-04-09T03:26:59.519Z,91.99
2023-04-09T03:27:59.489Z,92.09
2023-04-09T03:28:59.502Z,92.19
2023-04-09T03:29:59.465Z,92.34
2023-04-09T03:30:59.531Z,92.55
2023-04-09T03:31:59.449Z,92.96
2023-04-09T03:32:59.578Z,93.27
2023-04-09T03:33:59.417Z,93.58
2023-04-09T03:34:59.419Z,93.79
2023-04-09T03:35:59.465Z,93.68
2023-04-09T03:36:59.395Z,93.58
2023-04-09T03:37:59.369Z,93.48
2023-04-09T03:38:59.384Z,93.62
2023-04-09T03:39:59.330Z,93.73
2023-04-09T03:40:59.375Z,93.83
2023-04-09T03:41:59.320Z,93.73
2023-04-09T03:42:59.321Z,93.73
2023-04-09T03:43:59.309Z,93.93
2023-04-09T03:44:59.299Z,94.04
2023-04-09T03:45:59.275Z,94.04
2023-04-09T03:46:59.401Z,94.14
2023-04-09T03:47:59.268Z,94.35
2023-04-09T03:48:59.289Z,94.56
2023-04-09T03:49:59.256Z,94.35
2023-04-09T03:50:59.260Z,94.45
2023-04-09T03:51:59.200Z,94.45
2023-04-09T03:52:59.218Z,94.45
2023-04-09T03:53:59.203Z,94.45
2023-04-09T03:54:59.191Z,94.31
2023-04-09T03:55:59.173Z,94.10
2023-04-09T03:56:59.175Z,93.79
2023-04-09T03:57:59.153Z,93.68
2023-04-09T03:58:59.211Z,93.37
2023-04-09T04:00:00.103Z,93.41
2023-04-09T04:00:59.159Z,93.93
2023-04-09T04:01:59.162Z,94.24
2023-04-09T04:02:59.459Z,94.70
2023-04-09T04:03:59.137Z,95.01
2023-04-09T04:04:59.067Z,95.22
2023-04-09T04:05:59.073Z,95.43
2023-04-09T04:06:59.095Z,95.43
2023-04-09T04:07:59.035Z,95.32
2023-04-09T04:08:59.052Z,95.32
2023-04-09T04:09:59.028Z,95.32
2023-04-09T04:10:59.033Z,95.32
2023-04-09T04:11:59.060Z,95.26
2023-04-09T04:12:59.059Z,95.47
2023-04-09T04:13:58.955Z,95.64
2023-04-09T04:14:58.991Z,95.74
2023-04-09T04:15:58.997Z,95.64
2023-04-09T04:16:58.938Z,95.43
2023-04-09T04:17:58.961Z,95.22
2023-04-09T04:18:58.933Z,95.01
2023-04-09T04:19:58.893Z,95.01
2023-04-09T04:20:58.929Z,95.22
2023-04-09T04:21:59.833Z,95.32
2023-04-09T04:22:58.886Z,95.22
2023-04-09T04:23:58.833Z,95.26
2023-04-09T04:24:58.883Z,95.47
2023-04-09T04:25:58.820Z,95.53
2023-04-09T04:26:59.793Z,95.53
2023-04-09T04:27:58.782Z,95.43
2023-04-09T04:28:58.808Z,95.22
2023-04-09T04:29:58.826Z,94.91
2023-04-09T04:30:58.792Z,94.81
2023-04-09T04:31:58.806Z,94.45
2023-04-09T04:32:58.850Z,94.14
2023-04-09T04:33:58.779Z,94.04
2023-04-09T04:34:58.758Z,93.77
2023-04-09T04:35:58.799Z,93.87
2023-04-09T04:36:58.723Z,94.08
2023-04-09T04:37:58.694Z,94.08
2023-04-09T04:38:58.738Z,94.33
2023-04-09T04:39:58.660Z,94.60
2023-04-09T04:40:58.681Z,94.81
2023-04-09T04:41:59.639Z,94.81
2023-04-09T04:42:58.687Z,94.81
2023-04-09T04:43:58.642Z,94.43
2023-04-09T04:44:58.630Z,94.54
2023-04-09T04:45:58.654Z,94.74
2023-04-09T04:46:59.590Z,95.31
2023-04-09T04:47:58.658Z,95.72
2023-04-09T04:48:59.560Z,95.93
2023-04-09T04:49:58.555Z,95.93
2023-04-09T04:50:58.573Z,96.34
2023-04-09T04:51:58.567Z,96.66
2023-04-09T04:52:58.544Z,96.86
2023-04-09T04:53:58.520Z,96.76
2023-04-09T04:54:58.557Z,96.66
2023-04-09T04:55:58.504Z,96.45
2023-04-09T04:56:58.512Z,96.20
2023-04-09T04:57:58.451Z,95.99
2023-04-09T04:58:58.497Z,95.78
2023-04-09T04:59:58.482Z,95.78
2023-04-09T05:00:58.500Z,95.57
2023-04-09T05:01:58.479Z,95.37
2023-04-09T05:02:58.581Z,95.37
2023-04-09T05:03:58.460Z,95.62
2023-04-09T05:04:58.399Z,95.93
2023-04-09T05:05:58.381Z,96.24
2023-04-09T05:06:58.426Z,96.45
2023-04-09T05:07:58.358Z,96.55
2023-04-09T05:08:58.380Z,96.66
2023-04-09T05:09:58.360Z,96.55
2023-04-09T05:10:58.386Z,96.55
2023-04-09T05:11:58.316Z,96.66
2023-04-09T05:12:58.328Z,96.61
2023-04-09T05:13:58.301Z,96.41
2023-04-09T05:14:58.334Z,96.30
2023-04-09T05:15:58.288Z,96.09
2023-04-09T05:16:58.351Z,95.95
2023-04-09T05:17:58.411Z,95.64
2023-04-09T05:18:58.245Z,95.22
2023-04-09T05:19:59.195Z,94.81
2023-04-09T05:20:58.238Z,94.49
2023-04-09T05:21:58.187Z,94.39
2023-04-09T05:22:58.220Z,94.24
2023-04-09T05:23:58.194Z,94.14
2023-04-09T05:24:58.194Z,93.93
2023-04-09T05:25:58.183Z,93.73
2023-04-09T05:26:58.181Z,93.31
2023-04-09T05:27:58.143Z,92.90
2023-04-09T05:28:58.124Z,93.15
2023-04-09T05:30:00.374Z,93.56
2023-04-09T05:30:58.153Z,93.77
2023-04-09T05:31:58.091Z,93.83
2023-04-09T05:32:58.204Z,93.73
2023-04-09T05:33:58.097Z,93.62
2023-04-09T05:34:58.080Z,93.52
2023-04-09T05:35:58.177Z,93.41
2023-04-09T05:36:58.086Z,93.66
2023-04-09T05:37:58.020Z,93.87
2023-04-09T05:38:58.040Z,93.66
2023-04-09T05:39:58.041Z,94.23
2023-04-09T05:40:58.036Z,94.43
2023-04-09T05:41:58.051Z,94.74
2023-04-09T05:42:58.948Z,95.06
2023-04-09T05:44:00.444Z,95.26
2023-04-09T05:44:58.978Z,95.37
2023-04-09T05:45:57.943Z,95.37
2023-04-09T05:46:57.948Z,95.37
2023-04-09T05:47:57.935Z,95.22
2023-04-09T05:48:57.926Z,95.01
2023-04-09T05:49:57.911Z,94.60
2023-04-09T05:50:59.679Z,94.08
2023-04-09T05:51:57.934Z,93.87
2023-04-09T05:52:57.903Z,93.87
2023-04-09T05:53:57.849Z,94.08
2023-04-09T05:54:57.892Z,94.18
2023-04-09T05:55:57.854Z,94.29
2023-04-09T05:56:57.892Z,93.98
2023-04-09T05:57:57.790Z,93.73
2023-04-09T05:58:57.835Z,93.62
2023-04-09T05:59:57.789Z,93.41
2023-04-09T06:00:57.814Z,93.21
2023-04-09T06:01:57.808Z,93.10
2023-04-09T06:02:57.856Z,93.10
2023-04-09T06:03:58.535Z,93.21
2023-04-09T06:04:57.779Z,93.31
2023-04-09T06:05:57.706Z,93.41
2023-04-09T06:06:58.684Z,93.31
2023-04-09T06:07:57.725Z,93.16
2023-04-09T06:08:57.693Z,93.06
2023-04-09T06:09:57.724Z,93.00
2023-04-09T06:10:57.709Z,93.31
2023-04-09T06:11:57.800Z,93.62
2023-04-09T06:12:57.673Z,93.93
2023-04-09T06:13:57.622Z,93.93
2023-04-09T06:14:57.652Z,93.93
2023-04-09T06:15:58.684Z,93.73
2023-04-09T06:16:57.616Z,93.37
2023-04-09T06:17:59.395Z,92.96
2023-04-09T06:18:57.598Z,92.85
2023-04-09T06:19:57.565Z,92.65
2023-04-09T06:20:57.593Z,92.55
2023-04-09T06:21:57.600Z,92.59
2023-04-09T06:22:57.553Z,92.85
2023-04-09T06:23:57.501Z,92.85
2023-04-09T06:24:57.553Z,92.85
2023-04-09T06:25:57.511Z,92.65
2023-04-09T06:26:57.640Z,92.76
2023-04-09T06:27:57.495Z,92.69
2023-04-09T06:28:57.483Z,93.10
2023-04-09T06:29:57.449Z,93.62
2023-04-09T06:30:57.526Z,93.93
2023-04-09T06:31:57.440Z,94.04
2023-04-09T06:32:57.486Z,94.14
2023-04-09T06:33:57.398Z,94.20
2023-04-09T06:34:57.415Z,93.99
2023-04-09T06:35:57.443Z,93.79
2023-04-09T06:36:57.476Z,93.12
2023-04-09T06:37:57.395Z,92.81
2023-04-09T06:38:57.372Z,92.50
2023-04-09T06:40:00.982Z,92.30
2023-04-09T06:40:57.362Z,92.30
2023-04-09T06:41:57.315Z,92.30
2023-04-09T06:42:57.338Z,92.19
2023-04-09T06:43:57.276Z,92.09
2023-04-09T06:44:57.289Z,92.05
2023-04-09T06:45:57.274Z,91.94
2023-04-09T06:46:57.280Z,91.94
2023-04-09T06:47:57.301Z,91.74
2023-04-09T06:48:57.244Z,91.88
2023-04-09T06:49:57.228Z,92.30
2023-04-09T06:50:57.289Z,92.50
2023-04-09T06:51:57.185Z,92.46
2023-04-09T06:52:57.244Z,92.50
2023-04-09T06:53:57.221Z,92.71
2023-04-09T06:54:57.205Z,92.77
2023-04-09T06:55:57.323Z,92.77
2023-04-09T06:56:57.167Z,92.87
2023-04-09T06:57:57.133Z,92.77
2023-04-09T06:58:57.162Z,92.77
2023-04-09T06:59:57.110Z,92.63
2023-04-09T07:00:57.125Z,92.52
2023-04-09T07:01:57.152Z,92.32
2023-04-09T07:02:57.413Z,91.96
2023-04-09T07:03:57.394Z,91.55
2023-04-09T07:04:57.091Z,91.03
2023-04-09T07:05:57.082Z,90.68
2023-04-09T07:06:57.051Z,90.47
2023-04-09T07:07:57.042Z,90.06
2023-04-09T07:08:57.027Z,90.06
2023-04-09T07:09:57.023Z,90.06
2023-04-09T07:10:57.088Z,89.92
2023-04-09T07:11:57.005Z,89.71
2023-04-09T07:12:57.030Z,89.46
2023-04-09T07:13:57.003Z,89.15
2023-04-09T07:14:56.954Z,88.53
2023-04-09T07:15:56.974Z,88.43
2023-04-09T07:16:57.246Z,88.53
2023-04-09T07:17:56.950Z,88.53
2023-04-09T07:18:57.261Z,88.64
2023-04-09T07:19:56.886Z,88.68
2023-04-09T07:20:56.920Z,89.19
2023-04-09T07:21:56.886Z,89.61
2023-04-09T07:22:56.944Z,89.61
2023-04-09T07:23:56.851Z,88.95
2023-04-09T07:24:56.853Z,88.84
2023-04-09T07:25:56.849Z,88.53
2023-04-09T07:26:56.839Z,88.32
2023-04-09T07:27:56.816Z,88.43
2023-04-09T07:28:57.087Z,88.43
2023-04-09T07:29:56.837Z,88.64
2023-04-09T07:30:56.778Z,88.32
2023-04-09T07:31:56.895Z,88.02
2023-04-09T07:32:56.809Z,88.68
2023-04-09T07:33:56.757Z,89.40
2023-04-09T07:34:56.742Z,89.50
2023-04-09T07:35:56.810Z,89.56
2023-04-09T07:36:56.696Z,89.25
2023-04-09T07:37:56.724Z,88.95
2023-04-09T07:38:56.660Z,89.05
2023-04-09T07:39:57.377Z,88.80
2023-04-09T07:40:56.670Z,88.59
2023-04-09T07:41:56.697Z,88.18
2023-04-09T07:42:56.628Z,88.35
2023-04-09T07:43:56.659Z,88.04
2023-04-09T07:44:56.674Z,87.27
2023-04-09T07:45:56.659Z,86.66
2023-04-09T07:46:56.702Z,86.31
2023-04-09T07:47:56.596Z,86.15
2023-04-09T07:48:56.638Z,86.55
2023-04-09T07:49:56.589Z,86.72
2023-04-09T07:50:56.571Z,86.61
2023-04-09T07:51:56.558Z,86.06
2023-04-09T07:52:56.525Z,85.41
2023-04-09T07:53:56.524Z,84.99
2023-04-09T07:54:56.521Z,84.64
2023-04-09T07:55:56.516Z,84.09
2023-04-09T07:56:56.463Z,83.68
2023-04-09T07:57:56.494Z,82.86
2023-04-09T07:58:56.455Z,82.45
2023-04-09T07:59:56.493Z,82.65
2023-04-09T08:00:56.422Z,82.86
2023-04-09T08:01:56.561Z,83.06
2023-04-09T08:02:56.517Z,83.17
2023-04-09T08:03:56.574Z,82.82
2023-04-09T08:04:56.532Z,81.79
2023-04-09T08:05:56.415Z,81.69
2023-04-09T08:06:56.395Z,81.24
2023-04-09T08:07:56.399Z,81.34
2023-04-09T08:08:56.342Z,80.93
2023-04-09T08:09:56.377Z,80.90
2023-04-09T08:10:56.352Z,80.79
2023-04-09T08:11:56.319Z,80.28
2023-04-09T08:12:56.301Z,79.87
2023-04-09T08:13:56.325Z,79.73
2023-04-09T08:14:56.309Z,79.63
2023-04-09T08:15:56.341Z,79.63
2023-04-09T08:16:56.348Z,79.52
2023-04-09T08:17:56.286Z,79.46
2023-04-09T08:18:56.273Z,80.28
2023-04-09T08:19:56.286Z,80.49
2023-04-09T08:20:56.214Z,80.38
2023-04-09T08:21:56.245Z,79.97
2023-04-09T08:22:56.198Z,79.83
2023-04-09T08:23:56.192Z,79.63
2023-04-09T08:24:56.166Z,79.42
2023-04-09T08:25:56.172Z,79.08
2023-04-09T08:26:56.139Z,78.97
2023-04-09T08:27:56.224Z,78.67
2023-04-09T08:28:56.111Z,78.46
2023-04-09T08:29:56.147Z,78.42
2023-04-09T08:30:56.131Z,78.42
2023-04-09T08:31:56.478Z,77.71
2023-04-09T08:32:56.113Z,77.71
2023-04-09T08:33:56.101Z,77.77
2023-04-09T08:34:56.091Z,77.47
2023-04-09T08:35:56.114Z,77.26
2023-04-09T08:36:56.290Z,77.09
2023-04-09T08:37:56.057Z,77.50
2023-04-09T08:38:56.330Z,77.50
2023-04-09T08:39:56.044Z,77.77
2023-04-09T08:40:56.000Z,77.36
2023-04-09T08:41:55.989Z,77.06
2023-04-09T08:42:55.993Z,76.72
2023-04-09T08:43:58.913Z,76.92
2023-04-09T08:44:55.957Z,76.51
2023-04-09T08:45:55.995Z,76.88
2023-04-09T08:46:57.638Z,76.37
2023-04-09T08:47:55.998Z,75.96
2023-04-09T08:48:56.199Z,76.06
2023-04-09T08:49:55.894Z,75.45
2023-04-09T08:50:55.904Z,75.04
2023-04-09T08:51:55.904Z,75.18
2023-04-09T08:52:55.867Z,75.79
2023-04-09T08:53:55.920Z,75.99
2023-04-09T08:54:55.829Z,76.20
2023-04-09T08:55:55.855Z,76.40
2023-04-09T08:56:55.805Z,76.20
2023-04-09T08:57:55.841Z,76.10
2023-04-09T08:58:56.164Z,76.20
2023-04-09T08:59:55.861Z,76.20
2023-04-09T09:00:55.810Z,76.20
2023-04-09T09:01:55.909Z,75.89
2023-04-09T09:02:55.996Z,75.99
2023-04-09T09:03:55.957Z,76.10
2023-04-09T09:04:55.726Z,75.96
2023-04-09T09:05:55.720Z,76.06
2023-04-09T09:06:56.843Z,76.27
2023-04-09T09:07:55.727Z,76.57
2023-04-09T09:08:55.666Z,76.68
2023-04-09T09:09:55.724Z,76.68
2023-04-09T09:10:55.630Z,76.68
2023-04-09T09:11:55.684Z,76.57
2023-04-09T09:12:55.654Z,76.37
2023-04-09T09:13:55.693Z,76.23
2023-04-09T09:14:55.590Z,76.13
2023-04-09T09:15:55.605Z,75.93
2023-04-09T09:16:55.635Z,75.82
2023-04-09T09:17:55.696Z,75.10
2023-04-09T09:18:55.845Z,75.52
2023-04-09T09:19:55.563Z,75.42
2023-04-09T09:20:55.624Z,75.31
2023-04-09T09:21:55.540Z,75.42
2023-04-09T09:22:55.831Z,75.31
2023-04-09T09:23:55.537Z,75.21
2023-04-09T09:24:55.491Z,75.31
2023-04-09T09:25:55.491Z,75.21
2023-04-09T09:26:55.489Z,75.21
2023-04-09T09:27:55.510Z,75.21
2023-04-09T09:28:55.728Z,75.31
2023-04-09T09:29:55.469Z,75.01
2023-04-09T09:30:55.459Z,75.01
2023-04-09T09:31:55.509Z,74.90
2023-04-09T09:32:55.470Z,75.21
2023-04-09T09:33:55.449Z,75.01
2023-04-09T09:34:55.396Z,74.19
2023-04-09T09:35:55.399Z,73.06
2023-04-09T09:36:55.350Z,72.55
2023-04-09T09:37:55.417Z,73.06
2023-04-09T09:38:55.674Z,72.34
2023-04-09T09:39:55.381Z,72.34
2023-04-09T09:40:55.311Z,69.89
2023-04-09T09:41:55.324Z,69.07
2023-04-09T09:42:55.307Z,67.71
2023-04-09T09:43:55.290Z,67.50
2023-04-09T09:44:55.289Z,67.50
2023-04-09T09:45:55.319Z,67.10
2023-04-09T09:46:55.245Z,67.40
2023-04-09T09:47:55.306Z,67.88
2023-04-09T09:48:55.385Z,66.83
2023-04-09T09:49:55.244Z,67.00
2023-04-09T09:50:55.226Z,67.21
2023-04-09T09:51:55.206Z,66.80
2023-04-09T09:52:55.198Z,66.66
2023-04-09T09:53:55.183Z,66.77
2023-04-09T09:54:55.150Z,67.18
2023-04-09T09:55:55.180Z,66.46
2023-04-09T09:56:55.152Z,65.95
2023-04-09T09:57:55.184Z,65.44
2023-04-09T09:58:55.127Z,62.92
2023-04-09T09:59:56.083Z,63.43
2023-04-09T10:00:55.076Z,63.12
2023-04-09T10:01:55.153Z,64.14
2023-04-09T10:02:55.146Z,66.39
2023-04-09T10:03:55.075Z,67.82
2023-04-09T10:04:55.155Z,68.60
2023-04-09T10:05:55.045Z,68.70
2023-04-09T10:06:55.028Z,68.77
2023-04-09T10:07:55.023Z,67.76
2023-04-09T10:08:55.048Z,68.16
2023-04-09T10:09:54.989Z,67.82
2023-04-09T10:10:55.054Z,63.95
2023-04-09T10:11:54.989Z,64.46
2023-04-09T10:12:54.992Z,64.66
2023-04-09T10:13:54.979Z,65.78
2023-04-09T10:14:54.932Z,66.33
2023-04-09T10:15:54.970Z,65.64
2023-04-09T10:16:54.923Z,65.44
2023-04-09T10:17:54.973Z,65.64
2023-04-09T10:18:54.865Z,63.78
2023-04-09T10:19:54.899Z,63.98
2023-04-09T10:20:54.895Z,62.65
2023-04-09T10:21:55.107Z,61.53
2023-04-09T10:22:54.885Z,62.04
2023-04-09T10:23:54.852Z,62.52
2023-04-09T10:24:54.799Z,62.01
2023-04-09T10:25:54.847Z,62.01
2023-04-09T10:26:54.815Z,61.71
2023-04-09T10:27:54.990Z,60.58
2023-04-09T10:28:54.780Z,60.28
2023-04-09T10:29:54.801Z,59.77
2023-04-09T10:30:54.798Z,59.28
2023-04-09T10:31:54.748Z,59.39
2023-04-09T10:32:54.870Z,59.41
2023-04-09T10:33:54.746Z,59.41
2023-04-09T10:34:54.690Z,59.41
2023-04-09T10:35:54.767Z,59.41
2023-04-09T10:36:55.647Z,60.13
2023-04-09T10:37:54.713Z,60.10
2023-04-09T10:38:54.733Z,60.82
2023-04-09T10:39:54.771Z,60.48
2023-04-09T10:40:54.658Z,60.38
2023-04-09T10:41:54.717Z,60.14
2023-04-09T10:42:54.588Z,59.94
2023-04-09T10:43:54.649Z,60.05
2023-04-09T10:44:54.626Z,60.05
2023-04-09T10:45:54.613Z,59.84
2023-04-09T10:46:54.685Z,60.07
2023-04-09T10:47:54.635Z,59.53
2023-04-09T10:48:54.571Z,59.12
2023-04-09T10:49:54.572Z,58.51
2023-04-09T10:50:54.535Z,57.09
2023-04-09T10:51:54.524Z,57.19
2023-04-09T10:52:54.534Z,56.48
2023-04-09T10:53:54.585Z,57.09
2023-04-09T10:54:54.475Z,57.80
2023-04-09T10:55:54.539Z,57.90
2023-04-09T10:56:54.441Z,57.60
2023-04-09T10:57:54.463Z,57.70
2023-04-09T10:58:54.462Z,57.67
2023-04-09T10:59:54.448Z,56.76
2023-04-09T11:00:54.388Z,56.55
2023-04-09T11:01:54.570Z,56.15
2023-04-09T11:02:54.555Z,56.55
2023-04-09T11:03:54.428Z,56.85
2023-04-09T11:04:54.427Z,56.65
2023-04-09T11:05:54.386Z,56.96
2023-04-09T11:06:54.325Z,56.45
2023-04-09T11:07:54.340Z,55.84
2023-04-09T11:08:54.435Z,55.87
2023-04-09T11:09:54.313Z,55.26
2023-04-09T11:10:54.303Z,55.97
2023-04-09T11:11:54.338Z,55.15
2023-04-09T11:12:54.309Z,54.54
2023-04-09T11:13:54.289Z,56.37
2023-04-09T11:14:54.248Z,56.78
2023-04-09T11:15:54.286Z,57.19
2023-04-09T11:16:54.222Z,56.48
2023-04-09T11:17:54.399Z,56.37
2023-04-09T11:18:54.338Z,56.48
2023-04-09T11:19:54.217Z,56.55
2023-04-09T11:20:54.165Z,57.47
2023-04-09T11:21:54.254Z,57.26
2023-04-09T11:22:54.139Z,56.96
2023-04-09T11:23:54.203Z,57.26
2023-04-09T11:24:54.135Z,57.17
2023-04-09T11:25:54.214Z,57.06
2023-04-09T11:26:54.116Z,56.35
2023-04-09T11:27:54.113Z,55.33
2023-04-09T11:28:54.243Z,54.82
2023-04-09T11:29:55.048Z,55.53
2023-04-09T11:30:54.051Z,56.85
2023-04-09T11:31:54.134Z,57.26
2023-04-09T11:32:54.156Z,57.57
2023-04-09T11:33:54.058Z,57.98
2023-04-09T11:34:54.021Z,58.69
2023-04-09T11:35:54.059Z,58.80
2023-04-09T11:36:53.985Z,59.00
2023-04-09T11:37:53.992Z,58.18
2023-04-09T11:38:54.175Z,57.98
2023-04-09T11:39:55.579Z,58.49
2023-04-09T11:40:54.191Z,58.28
2023-04-09T11:41:54.065Z,57.37
2023-04-09T11:42:53.934Z,57.26
2023-04-09T11:43:53.928Z,57.04
2023-04-09T11:44:53.958Z,56.85
2023-04-09T11:45:54.847Z,56.76
2023-04-09T11:46:53.926Z,56.85
2023-04-09T11:47:53.929Z,57.47
2023-04-09T11:48:54.128Z,57.67
2023-04-09T11:49:53.859Z,57.78
2023-04-09T11:50:53.842Z,58.80
2023-04-09T11:51:53.846Z,59.20
2023-04-09T11:52:53.867Z,59.71
2023-04-09T11:53:53.795Z,59.51
2023-04-09T11:54:53.818Z,58.39
2023-04-09T11:55:53.821Z,58.69
2023-04-09T11:56:53.790Z,59.71
2023-04-09T11:57:53.763Z,59.71
2023-04-09T11:58:54.028Z,59.51
2023-04-09T11:59:53.746Z,59.07
2023-04-09T12:00:53.755Z,59.07
2023-04-09T12:01:53.769Z,58.87
2023-04-09T12:02:53.919Z,58.87
2023-04-09T12:03:53.867Z,58.97
2023-04-09T12:04:53.808Z,58.97
2023-04-09T12:05:53.660Z,58.05
2023-04-09T12:06:53.702Z,57.95
2023-04-09T12:07:56.717Z,57.11
2023-04-09T12:08:53.818Z,57.42
2023-04-09T12:09:53.635Z,57.62
2023-04-09T12:10:54.180Z,57.72
2023-04-09T12:11:53.596Z,57.52
2023-04-09T12:12:53.606Z,56.81
2023-04-09T12:13:53.589Z,57.11
2023-04-09T12:14:53.616Z,57.72
2023-04-09T12:15:53.565Z,57.75
2023-04-09T12:16:53.603Z,58.36
2023-04-09T12:17:53.579Z,58.23
2023-04-09T12:18:53.723Z,58.03
2023-04-09T12:19:53.547Z,57.82
2023-04-09T12:20:53.528Z,57.72
2023-04-09T12:21:53.513Z,57.72
2023-04-09T12:22:53.495Z,57.79
2023-04-09T12:23:53.489Z,57.69
2023-04-09T12:24:53.470Z,57.79
2023-04-09T12:25:53.478Z,57.90
2023-04-09T12:26:53.450Z,58.28
2023-04-09T12:27:53.411Z,57.46
2023-04-09T12:28:53.666Z,56.75
2023-04-09T12:29:53.407Z,56.62
2023-04-09T12:30:53.439Z,56.21
2023-04-09T12:31:53.398Z,55.91
2023-04-09T12:32:53.413Z,55.81
2023-04-09T12:33:53.356Z,56.01
2023-04-09T12:34:53.369Z,55.81
2023-04-09T12:35:53.390Z,55.30
2023-04-09T12:36:53.344Z,55.60
2023-04-09T12:37:53.351Z,56.01
2023-04-09T12:38:53.533Z,56.12
2023-04-09T12:39:53.279Z,56.01
2023-04-09T12:40:53.312Z,56.12
2023-04-09T12:41:53.255Z,55.83
2023-04-09T12:42:53.277Z,55.63
2023-04-09T12:43:53.349Z,56.14
2023-04-09T12:44:53.277Z,56.14
2023-04-09T12:45:53.361Z,56.34
2023-04-09T12:46:53.232Z,56.34
2023-04-09T12:47:53.271Z,56.01
2023-04-09T12:48:53.232Z,55.40
2023-04-09T12:49:53.162Z,55.51
2023-04-09T12:50:53.204Z,55.30
2023-04-09T12:51:53.152Z,55.60